createdAt,value
2018-10-19T00:00:38.957Z,27.40
2018-10-19T00:03:42.466Z,27.70
2018-10-19T00:06:50.106Z,28.40
2018-10-19T00:09:54.956Z,27.73
2018-10-19T00:12:58.447Z,28.55
2018-10-19T00:16:02.074Z,29.40
2018-10-19T00:19:06.087Z,28.87
2018-10-19T00:22:09.590Z,29.35
2018-10-19T00:25:13.141Z,28.70
2018-10-19T00:28:21.827Z,29.75
2018-10-19T00:31:25.330Z,28.23
2018-10-19T00:34:28.891Z,28.67
2018-10-19T00:37:32.507Z,27.42
2018-10-19T00:40:36.007Z,28.17
2018-10-19T00:43:39.552Z,28.83
2018-10-19T00:46:43.065Z,28.03
2018-10-19T00:49:46.598Z,29.30
2018-10-19T00:52:50.121Z,27.40
2018-10-19T00:55:53.656Z,28.05
2018-10-19T00:58:57.116Z,28.03
2018-10-19T01:02:00.665Z,26.27
2018-10-19T01:05:05.338Z,27.73
2018-10-19T01:08:09.604Z,28.75
2018-10-19T01:11:13.278Z,27.23
2018-10-19T01:14:16.761Z,27.17
2018-10-19T01:17:21.319Z,27.57
2018-10-19T01:20:25.001Z,26.53
2018-10-19T01:23:28.505Z,26.30
2018-10-19T01:26:32.039Z,26.30
2018-10-19T01:29:35.518Z,26.50
2018-10-19T01:32:39.370Z,26.97
2018-10-19T01:35:44.908Z,27.93
2018-10-19T01:38:49.400Z,27.62
2018-10-19T01:41:52.950Z,26.68
2018-10-19T01:44:56.471Z,26.52
2018-10-19T01:48:00.424Z,26.87
2018-10-19T01:51:04.066Z,25.12
2018-10-19T01:54:07.581Z,26.07
2018-10-19T01:57:11.089Z,27.00
2018-10-19T02:00:14.599Z,26.87
2018-10-19T02:03:18.199Z,26.40
2018-10-19T02:06:21.914Z,25.93
2018-10-19T02:09:25.352Z,27.32
2018-10-19T02:12:29.010Z,27.47
2018-10-19T02:15:33.503Z,25.83
2018-10-19T02:18:37.049Z,25.10
2018-10-19T02:21:40.720Z,26.10
2018-10-19T02:24:44.198Z,26.83
2018-10-19T02:27:47.902Z,26.77
2018-10-19T02:30:51.567Z,26.77
2018-10-19T02:33:55.015Z,26.68
2018-10-19T02:36:58.588Z,26.70
2018-10-19T02:40:02.256Z,25.57
2018-10-19T02:43:06.204Z,25.87
2018-10-19T02:46:09.783Z,24.92
2018-10-19T02:49:13.274Z,26.47
2018-10-19T02:52:16.778Z,25.33
2018-10-19T02:55:20.313Z,25.10
2018-10-19T02:58:23.864Z,24.57
2018-10-19T03:01:27.362Z,25.87
2018-10-19T03:04:30.777Z,25.33
2018-10-19T03:07:34.281Z,25.25
2018-10-19T03:10:37.826Z,25.40
2018-10-19T03:13:41.391Z,25.30
2018-10-19T03:16:45.118Z,25.17
2018-10-19T03:19:48.809Z,24.17
2018-10-19T03:22:52.645Z,25.00
2018-10-19T03:25:56.193Z,23.47
2018-10-19T03:29:03.581Z,26.03
2018-10-19T03:32:07.217Z,25.75
2018-10-19T03:35:10.786Z,25.93
2018-10-19T03:38:14.233Z,25.60
2018-10-19T03:41:17.808Z,24.87
2018-10-19T03:44:21.323Z,26.40
2018-10-19T03:47:24.874Z,25.15
2018-10-19T03:50:28.506Z,25.57
2018-10-19T03:53:32.207Z,26.03
2018-10-19T03:56:35.690Z,25.27
2018-10-19T03:59:44.603Z,26.25
2018-10-19T04:02:48.127Z,25.13
2018-10-19T04:05:51.653Z,25.00
2018-10-19T04:08:57.092Z,25.03
2018-10-19T04:12:00.687Z,25.37
2018-10-19T04:15:05.187Z,26.00
2018-10-19T04:18:08.677Z,24.57
2018-10-19T04:21:29.095Z,24.03
2018-10-19T04:24:39.649Z,25.60
2018-10-19T04:27:49.075Z,26.10
2018-10-19T04:30:54.005Z,24.47
2018-10-19T04:33:58.591Z,25.00
2018-10-19T04:37:05.099Z,23.77
2018-10-19T04:40:17.616Z,25.12
2018-10-19T04:43:21.186Z,23.83
2018-10-19T04:46:24.661Z,23.10
2018-10-19T04:49:30.237Z,22.63
2018-10-19T04:52:40.047Z,23.67
2018-10-19T04:55:43.697Z,22.40
2018-10-19T04:58:47.109Z,23.70
2018-10-19T05:01:50.504Z,23.57
2018-10-19T05:04:54.007Z,23.00
2018-10-19T05:07:57.609Z,23.00
2018-10-19T05:11:01.139Z,22.87
2018-10-19T05:14:04.542Z,23.43
2018-10-19T05:17:09.116Z,24.02
2018-10-19T05:20:13.476Z,23.00
2018-10-19T05:23:16.901Z,23.93
2018-10-19T05:26:24.641Z,22.80
2018-10-19T05:29:28.162Z,23.73
2018-10-19T05:32:31.679Z,23.43
2018-10-19T05:35:35.239Z,23.35
2018-10-19T05:38:38.782Z,22.20
2018-10-19T05:41:42.491Z,23.47
2018-10-19T05:44:45.997Z,23.80
2018-10-19T05:47:49.655Z,23.90
2018-10-19T05:50:53.163Z,23.30
2018-10-19T05:53:56.712Z,23.80
2018-10-19T05:57:00.281Z,23.47
2018-10-19T06:00:03.889Z,22.73
2018-10-19T06:03:08.439Z,25.30
2018-10-19T06:06:12.043Z,23.60
2018-10-19T06:09:15.452Z,25.47
2018-10-19T06:12:18.900Z,22.50
2018-10-19T06:15:22.457Z,24.33
2018-10-19T06:18:25.892Z,22.60
2018-10-19T06:21:29.404Z,22.07
2018-10-19T06:24:32.959Z,21.90
2018-10-19T06:27:36.399Z,23.23
2018-10-19T06:30:39.931Z,22.40
2018-10-19T06:33:43.504Z,22.07
2018-10-19T06:36:46.998Z,22.73
2018-10-19T06:39:50.596Z,23.80
2018-10-19T06:42:54.114Z,23.27
2018-10-19T06:45:57.675Z,23.00
2018-10-19T06:49:01.062Z,24.13
2018-10-19T06:52:04.546Z,23.73
2018-10-19T06:55:09.475Z,24.30
2018-10-19T06:58:13.193Z,24.17
2018-10-19T07:01:16.692Z,23.90
2018-10-19T07:04:20.231Z,24.40
2018-10-19T07:07:23.766Z,24.10
2018-10-19T07:10:27.325Z,24.60
2018-10-19T07:13:30.799Z,25.37
2018-10-19T07:16:34.612Z,24.73
2018-10-19T07:19:38.109Z,22.17
2018-10-19T07:22:41.693Z,24.47
2018-10-19T07:25:45.213Z,25.60
2018-10-19T07:28:48.695Z,22.83
2018-10-19T07:31:52.119Z,23.70
2018-10-19T07:34:55.616Z,22.20
2018-10-19T07:38:00.135Z,23.23
2018-10-19T07:41:03.680Z,22.73
2018-10-19T07:44:07.190Z,23.50
2018-10-19T07:47:10.794Z,25.60
2018-10-19T07:50:14.251Z,22.67
2018-10-19T07:53:17.698Z,23.87
2018-10-19T07:56:21.349Z,25.60
2018-10-19T07:59:24.897Z,24.13
2018-10-19T08:02:28.361Z,25.03
2018-10-19T08:05:32.016Z,24.37
2018-10-19T08:08:35.633Z,23.77
2018-10-19T08:11:39.270Z,25.57
2018-10-19T08:14:42.721Z,25.17
2018-10-19T08:17:46.259Z,24.13
2018-10-19T08:20:49.745Z,25.37
2018-10-19T08:23:54.259Z,25.17
2018-10-19T08:26:57.663Z,24.87
2018-10-19T08:30:01.266Z,25.57
2018-10-19T08:33:04.868Z,26.50
2018-10-19T08:36:08.585Z,25.83
2018-10-19T08:39:12.078Z,25.57
2018-10-19T08:42:15.683Z,26.50
2018-10-19T08:45:19.869Z,27.33
2018-10-19T08:48:23.470Z,26.47
2018-10-19T08:51:27.001Z,26.77
2018-10-19T08:54:30.669Z,24.97
2018-10-19T08:57:34.109Z,24.73
2018-10-19T09:00:37.725Z,22.93
2018-10-19T09:03:41.410Z,23.67
2018-10-19T09:06:44.647Z,23.87
2018-10-19T09:09:48.245Z,24.13
2018-10-19T09:12:51.773Z,22.93
2018-10-19T09:15:55.201Z,23.27
2018-10-19T09:18:58.737Z,24.27
2018-10-19T09:22:02.260Z,23.57
2018-10-19T09:25:05.789Z,24.10
2018-10-19T09:28:09.271Z,24.93
2018-10-19T09:31:12.692Z,24.77
2018-10-19T09:34:16.140Z,24.83
2018-10-19T09:37:19.659Z,24.87
2018-10-19T09:40:23.141Z,25.93
2018-10-19T09:43:26.499Z,25.83
2018-10-19T09:46:30.042Z,27.00
2018-10-19T09:49:33.522Z,28.07
2018-10-19T09:52:36.952Z,28.03
2018-10-19T09:55:40.428Z,27.27
2018-10-19T09:58:43.842Z,27.40
2018-10-19T10:01:47.220Z,27.93
2018-10-19T10:04:50.756Z,27.50
2018-10-19T10:07:54.436Z,29.10
2018-10-19T10:10:57.872Z,29.97
2018-10-19T10:14:01.224Z,30.70
2018-10-19T10:17:05.023Z,27.60
2018-10-19T10:20:08.739Z,27.63
2018-10-19T10:23:12.295Z,27.77
2018-10-19T10:26:15.908Z,29.73
2018-10-19T10:29:19.492Z,31.17
2018-10-19T10:32:23.115Z,29.43
2018-10-19T10:35:26.700Z,28.57
2018-10-19T10:38:30.258Z,28.13
2018-10-19T10:41:33.740Z,29.77
2018-10-19T10:44:37.312Z,28.30
2018-10-19T10:47:40.918Z,27.63
2018-10-19T10:50:44.488Z,25.93
2018-10-19T10:53:48.012Z,27.00
2018-10-19T10:56:51.528Z,29.40
2018-10-19T10:59:56.057Z,30.77
2018-10-19T11:02:59.612Z,31.73
2018-10-19T11:06:03.150Z,31.33
2018-10-19T11:09:09.705Z,28.50
2018-10-19T11:12:13.241Z,27.40
2018-10-19T11:15:16.833Z,27.63
2018-10-19T11:18:20.303Z,28.40
2018-10-19T11:21:23.854Z,29.67
2018-10-19T11:24:27.443Z,27.03
2018-10-19T11:27:30.913Z,29.00
2018-10-19T11:30:34.471Z,29.80
2018-10-19T11:33:37.931Z,27.97
2018-10-19T11:36:41.425Z,30.37
2018-10-19T11:40:48.280Z,28.90
2018-10-19T11:43:51.859Z,28.80
2018-10-19T11:46:59.926Z,28.43
2018-10-19T11:50:03.492Z,29.67
2018-10-19T11:53:07.112Z,28.03
2018-10-19T11:56:10.671Z,28.37
2018-10-19T11:59:14.135Z,26.67
2018-10-19T12:02:17.666Z,29.97
2018-10-19T12:05:21.184Z,28.00
2018-10-19T12:08:24.793Z,28.47
2018-10-19T12:11:28.451Z,26.07
2018-10-19T12:14:31.882Z,27.80
2018-10-19T12:17:35.413Z,26.50
2018-10-19T12:20:38.856Z,29.67
2018-10-19T12:23:42.542Z,27.63
2018-10-19T12:26:46.101Z,27.80
2018-10-19T12:29:49.679Z,25.50
2018-10-19T12:32:53.194Z,28.83
2018-10-19T12:35:56.719Z,28.40
2018-10-19T12:39:00.180Z,28.50
2018-10-19T12:42:03.616Z,26.87
2018-10-19T12:45:18.244Z,28.90
2018-10-19T12:48:21.584Z,30.53
2018-10-19T12:51:26.165Z,29.07
2018-10-19T12:54:29.830Z,28.63
2018-10-19T12:57:33.422Z,26.37
2018-10-19T13:00:36.854Z,27.27
2018-10-19T13:03:40.785Z,28.90
2018-10-19T13:06:44.258Z,28.00
2018-10-19T13:09:47.618Z,28.00
2018-10-19T13:12:53.970Z,27.83
2018-10-19T13:15:57.416Z,27.30
2018-10-19T13:19:00.925Z,26.10
2018-10-19T13:22:04.366Z,28.00
2018-10-19T13:25:07.848Z,26.87
2018-10-19T13:28:11.405Z,27.10
2018-10-19T13:31:14.907Z,27.47
2018-10-19T13:34:18.436Z,25.53
2018-10-19T13:37:21.912Z,25.63
2018-10-19T13:40:25.497Z,27.17
2018-10-19T13:43:28.968Z,25.93
2018-10-19T13:46:32.441Z,27.50
2018-10-19T13:49:35.848Z,27.53
2018-10-19T13:52:39.250Z,28.55
2018-10-19T13:55:42.711Z,27.67
2018-10-19T13:58:46.086Z,24.10
2018-10-19T14:01:49.613Z,25.83
2018-10-19T14:04:53.147Z,25.23
2018-10-19T14:07:56.612Z,26.23
2018-10-19T14:11:00.372Z,26.57
2018-10-19T14:14:03.872Z,27.77
2018-10-19T14:17:07.346Z,26.00
2018-10-19T14:20:12.240Z,26.90
2018-10-19T14:23:15.831Z,25.47
2018-10-19T14:26:19.246Z,25.90
2018-10-19T14:29:22.720Z,27.10
2018-10-19T14:32:26.191Z,24.13
2018-10-19T14:35:29.633Z,26.03
2018-10-19T14:38:33.004Z,25.30
2018-10-19T14:41:36.443Z,26.53
2018-10-19T14:44:40.149Z,23.57
2018-10-19T14:47:44.347Z,25.03
2018-10-19T14:50:47.874Z,25.37
2018-10-19T14:53:51.273Z,26.83
2018-10-19T14:56:54.923Z,26.10
2018-10-19T14:59:58.387Z,26.03
2018-10-19T15:03:01.918Z,24.67
2018-10-19T15:06:05.731Z,26.40
2018-10-19T15:09:10.975Z,23.40
2018-10-19T15:12:14.360Z,25.83
2018-10-19T15:15:21.053Z,25.47
2018-10-19T15:18:24.504Z,25.00
2018-10-19T15:21:27.946Z,26.37
2018-10-19T15:24:31.616Z,25.53
2018-10-19T15:27:35.063Z,24.70
2018-10-19T15:30:38.854Z,24.43
2018-10-19T15:33:42.439Z,24.77
2018-10-19T15:36:45.869Z,25.63
2018-10-19T15:39:49.315Z,26.70
2018-10-19T15:42:52.736Z,23.97
2018-10-19T15:45:56.101Z,21.90
2018-10-19T15:48:59.537Z,24.23
2018-10-19T15:52:03.008Z,22.50
2018-10-19T15:55:06.984Z,24.33
2018-10-19T15:58:10.456Z,23.10
2018-10-19T16:01:13.819Z,22.63
2018-10-19T16:04:17.224Z,22.30
2018-10-19T16:07:20.775Z,22.67
2018-10-19T16:10:24.279Z,23.13
2018-10-19T16:13:27.802Z,24.10
2018-10-19T16:16:31.351Z,21.87
2018-10-19T16:19:34.836Z,21.53
2018-10-19T16:22:38.796Z,21.20
2018-10-19T16:25:42.303Z,20.67
2018-10-19T16:28:45.833Z,20.77
2018-10-19T16:31:50.292Z,22.63
2018-10-19T16:34:53.866Z,20.67
2018-10-19T16:37:57.443Z,21.27
2018-10-19T16:41:00.944Z,21.20
2018-10-19T16:44:04.722Z,20.00
2018-10-19T16:47:08.171Z,20.52
2018-10-19T16:50:12.697Z,20.83
2018-10-19T16:53:16.283Z,21.03
2018-10-19T16:56:19.878Z,20.83
2018-10-19T16:59:23.464Z,19.93
2018-10-19T17:02:26.965Z,20.50
2018-10-19T17:05:30.405Z,20.73
2018-10-19T17:08:33.905Z,20.73
2018-10-19T17:11:37.477Z,19.73
2018-10-19T17:14:41.460Z,20.10
2018-10-19T17:17:45.056Z,22.07
2018-10-19T17:20:48.701Z,24.27
2018-10-19T17:23:53.328Z,24.97
2018-10-19T17:26:56.886Z,24.13
2018-10-19T17:30:01.388Z,23.97
2018-10-19T17:33:05.289Z,24.93
2018-10-19T17:36:08.795Z,24.50
2018-10-19T17:39:12.674Z,23.90
2018-10-19T17:42:16.188Z,23.47
2018-10-19T17:45:19.749Z,25.03
2018-10-19T17:48:23.337Z,23.93
2018-10-19T17:51:27.020Z,26.13
2018-10-19T17:54:30.591Z,25.07
2018-10-19T17:57:38.122Z,26.97
2018-10-19T18:00:41.699Z,27.60
2018-10-19T18:03:46.223Z,27.00
2018-10-19T18:06:49.909Z,24.43
2018-10-19T18:09:54.463Z,24.17
2018-10-19T18:12:58.031Z,22.83
2018-10-19T18:16:01.952Z,22.83
2018-10-19T18:19:06.802Z,23.30
2018-10-19T18:22:10.952Z,23.33
2018-10-19T18:25:14.351Z,22.33
2018-10-19T18:28:17.995Z,21.73
2018-10-19T18:31:21.600Z,22.77
2018-10-19T18:34:25.384Z,22.73
2018-10-19T18:37:29.331Z,23.80
2018-10-19T18:40:33.007Z,23.45
2018-10-19T18:43:37.770Z,23.67
2018-10-19T18:46:41.624Z,24.53
2018-10-19T18:49:45.154Z,24.53
2018-10-19T18:52:48.967Z,23.90
2018-10-19T18:55:52.691Z,23.73
2018-10-19T18:58:56.279Z,24.10
2018-10-19T19:01:59.822Z,26.60
2018-10-19T19:05:03.316Z,27.37
2018-10-19T19:08:06.985Z,27.40
2018-10-19T19:11:10.776Z,26.83
2018-10-19T19:14:15.355Z,27.87
2018-10-19T19:17:18.979Z,24.70
2018-10-19T19:20:25.646Z,24.07
2018-10-19T19:23:29.255Z,24.73
2018-10-19T19:26:32.794Z,24.23
2018-10-19T19:29:36.312Z,23.00
2018-10-19T19:32:48.363Z,24.27
2018-10-19T19:35:51.973Z,24.37
2018-10-19T19:38:56.007Z,22.77
2018-10-19T19:42:07.028Z,21.47
2018-10-19T19:45:13.775Z,22.50
2018-10-19T19:48:22.517Z,23.90
2018-10-19T19:51:25.934Z,23.80
2018-10-19T19:54:29.481Z,23.00
2018-10-19T19:57:32.982Z,23.23
2018-10-19T20:00:36.478Z,23.27
2018-10-19T20:03:39.879Z,22.27
2018-10-19T20:06:43.345Z,21.57
2018-10-19T20:09:47.263Z,22.53
2018-10-19T20:12:50.781Z,22.47
2018-10-19T20:15:54.345Z,21.77
2018-10-19T20:18:58.064Z,23.10
2018-10-19T20:22:01.668Z,22.30
2018-10-19T20:25:07.246Z,23.07
2018-10-19T20:28:10.778Z,22.63
2018-10-19T20:31:14.283Z,23.80
2018-10-19T20:34:17.882Z,23.70
2018-10-19T20:37:21.373Z,22.47
2018-10-19T20:40:25.100Z,25.80
2018-10-19T20:43:28.571Z,25.63
2018-10-19T20:46:32.143Z,26.47
2018-10-19T20:49:35.693Z,24.97
2018-10-19T20:52:39.565Z,26.47
2018-10-19T20:55:43.253Z,26.00
2018-10-19T20:58:47.099Z,26.03
2018-10-19T21:01:50.634Z,25.53
2018-10-19T21:04:54.259Z,24.80
2018-10-19T21:07:58.209Z,25.13
2018-10-19T21:11:02.787Z,26.53
2018-10-19T21:14:06.877Z,25.03
2018-10-19T21:17:10.409Z,25.50
2018-10-19T21:20:13.980Z,25.83
2018-10-19T21:23:17.505Z,25.87
2018-10-19T21:26:24.911Z,25.33
2018-10-19T21:29:30.465Z,26.20
2018-10-19T21:32:33.962Z,25.77
2018-10-19T21:35:38.470Z,26.83
2018-10-19T21:38:41.956Z,24.90
2018-10-19T21:41:45.646Z,25.63
2018-10-19T21:44:49.304Z,26.13
2018-10-19T21:47:52.927Z,25.90
2018-10-19T21:50:56.530Z,25.30
2018-10-19T21:54:00.163Z,27.00
2018-10-19T21:57:03.950Z,25.30
2018-10-19T22:00:09.256Z,26.90
2018-10-19T22:03:12.781Z,26.27
2018-10-19T22:06:16.288Z,26.13
2018-10-19T22:09:19.762Z,25.60
2018-10-19T22:12:23.701Z,26.77
2018-10-19T22:15:27.153Z,26.53
2018-10-19T22:18:30.709Z,26.37
2018-10-19T22:21:34.252Z,26.57
2018-10-19T22:24:37.767Z,26.60
2018-10-19T22:27:41.369Z,25.60
2018-10-19T22:30:44.893Z,26.93
2018-10-19T22:33:48.373Z,26.20
2018-10-19T22:36:51.908Z,27.00
2018-10-19T22:39:55.494Z,27.47
2018-10-19T22:42:59.000Z,27.13
2018-10-19T22:46:02.578Z,27.47
2018-10-19T22:49:06.158Z,28.30
2018-10-19T22:52:09.754Z,28.17
2018-10-19T22:55:13.336Z,29.03
2018-10-19T22:58:16.831Z,27.60
2018-10-19T23:01:20.366Z,26.57
2018-10-19T23:04:23.864Z,29.07
2018-10-19T23:07:27.414Z,28.27
2018-10-19T23:10:32.037Z,27.93
2018-10-19T23:13:35.577Z,27.87
2018-10-19T23:16:39.114Z,27.93
2018-10-19T23:19:42.569Z,28.23
2018-10-19T23:22:46.321Z,28.33
2018-10-19T23:25:49.866Z,28.47
2018-10-19T23:28:53.431Z,29.07
2018-10-19T23:31:57.902Z,30.50
2018-10-19T23:35:03.422Z,28.17
2018-10-19T23:38:07.012Z,28.77
2018-10-19T23:41:10.588Z,28.03
2018-10-19T23:44:15.089Z,29.07
2018-10-19T23:47:18.671Z,28.17
2018-10-19T23:50:22.255Z,26.67
2018-10-19T23:53:25.693Z,25.43
2018-10-19T23:56:29.448Z,26.83
2018-10-19T23:59:32.927Z,25.97
